Lenoir City, TN

1:41 PM EDT on August 29, 2014 (GMT -0400)
MesoWest Tower C TN US | Change Station
CLOSE
Current Station
Personal Weather Station
Location: Oak Ridge, TN
Elevation: 855 ft
Nearby Weather Stations

Elev 855 ft 35.93 °N, 84.32 °W | Updated 122 days ago

Thunderstorm
Thunderstorm
90 °F
Feels Like 90 °F
N
5
Wind Variable Wind from SW
Gusts 6 mph

Today
High -- | Low -- °F
--% Chance of Precip.
Yesterday
High -- | Low -- °F
Precip. -- in
7:06 AM 8:08 PM
Waxing Crescent, 15% visible
Pressure 30.04 in
Visibility 10.0 miles
Clouds Clear
Heat Index 90 °F
Dew Point 64 °F
Humidity 42%
Rainfall 0.00 in
Snow Depth Not available.
UV 10 out of 12
Pollen 9.80 out of 12
Ozone Good
Flu Activity Not available.
METAR KOQT 291653Z AUTO 00000KT 10SM CLR 31/21 A3010 RMK AO2 SLP173 T03110211

More Conditions Fewer Conditions

Pressure 30.04 in
Visibility 10.0 miles
Clouds Clear
Heat Index 90 °F
Dew Point 64 °F
Humidity 42%
Rainfall 0.00 in
Snow Depth Not available.
UV 10 out of 12
Pollen 9.80 out of 12
Ozone Good
Flu Activity Not available.
METAR KOQT 291653Z AUTO 00000KT 10SM CLR 31/21 A3010 RMK AO2 SLP173 T03110211

More Conditions Fewer Conditions

10-Day Weather Forecast

Almanac

Astronomy

Aug. 29, 2014 Rise Set
Actual Time 7:06 AM EDT 8:08 PM EDT
Civil Twilight 6:40 AM EDT 8:35 PM EDT
Nautical Twilight 6:09 AM EDT 9:06 PM EDT
Astronomical Twilight 5:36 AM EDT 9:38 PM EDT
Moon 10:46 AM EDT 10:15 PM EDT
Length of Visible Light 13h 54m
Length of Day
13h 02m
Tomorrow will be 2m 9s shorter.
Waxing Crescent, 15% of the Moon is Illuminated
Today
Waxing Crescent
Sep 2
First Quarter
Sep 8
Full
Sep 15
Last Quarter
Sep 24
New

Today's Extremes

State Highs State Lows

Community

WunderPhotos

Upload Photos

1,748,302 photos uploaded!

Nearby

Air Quality

  Air Quality AQ Index Pollutant
Yesterday Moderate
PM2.5
Yesterday Moderate
OZONE
Current Good
OZONE
Friday Moderate
OZONE
Friday Moderate
PM2.5
Saturday Moderate
PM2.5
Saturday Moderate
OZONE

Snow Depth

Station Depth Elevation
No new snow has been reported.

Earthquake Activity

City Distance Mag. Time & Date
No recent earthquake activity has been reported nearby.
Minimum magnitude displayed is 2.5.

Coastal Water Temperatures

Place Temperature
No Stations Reporting

Nearby Weather Stations